createdAt,value
2022-08-25T00:01:57.435Z,19.50
2022-08-25T00:04:26.283Z,19.40
2022-08-25T00:06:59.425Z,19.40
2022-08-25T00:09:31.717Z,19.40
2022-08-25T00:11:59.682Z,19.40
2022-08-25T00:14:31.396Z,19.40
2022-08-25T00:16:59.062Z,19.50
2022-08-25T00:19:29.902Z,19.40
2022-08-25T00:21:57.481Z,19.40
2022-08-25T00:24:25.582Z,19.40
2022-08-25T00:26:55.055Z,19.40
2022-08-25T00:29:25.825Z,19.30
2022-08-25T00:31:55.009Z,19.30
2022-08-25T00:34:26.667Z,19.30
2022-08-25T00:36:54.920Z,19.30
2022-08-25T00:39:23.662Z,19.20
2022-08-25T00:41:55.798Z,19.30
2022-08-25T00:44:25.164Z,19.20
2022-08-25T00:46:56.225Z,19.20
2022-08-25T00:49:32.619Z,19.10
2022-08-25T00:52:05.037Z,19.00
2022-08-25T00:54:36.579Z,19.00
2022-08-25T00:57:07.379Z,19.00
2022-08-25T00:59:35.728Z,19.00
2022-08-25T01:02:05.592Z,19.00
2022-08-25T01:04:37.341Z,19.10
2022-08-25T01:07:05.955Z,19.10
2022-08-25T01:09:38.333Z,19.10
2022-08-25T01:12:06.232Z,19.10
2022-08-25T01:14:35.315Z,19.20
2022-08-25T01:17:03.273Z,19.20
2022-08-25T01:19:33.449Z,19.20
2022-08-25T01:22:01.346Z,19.30
2022-08-25T01:25:09.453Z,19.30
2022-08-25T01:27:36.956Z,19.30
2022-08-25T01:30:05.395Z,19.40
2022-08-25T01:32:34.854Z,19.40
2022-08-25T01:35:02.535Z,19.40
2022-08-25T01:37:35.211Z,19.50
2022-08-25T01:40:03.454Z,19.50
2022-08-25T01:43:00.225Z,19.50
2022-08-25T01:45:28.941Z,19.50
2022-08-25T01:47:56.866Z,19.50
2022-08-25T01:50:24.768Z,19.50
2022-08-25T01:53:29.154Z,19.50
2022-08-25T01:56:02.721Z,19.40
2022-08-25T01:58:35.095Z,19.40
2022-08-25T02:01:06.106Z,19.30
2022-08-25T02:03:38.134Z,19.30
2022-08-25T02:06:12.250Z,19.20
2022-08-25T02:08:41.003Z,19.20
2022-08-25T02:11:12.499Z,19.10
2022-08-25T02:13:42.221Z,19.10
2022-08-25T02:16:15.099Z,19.10
2022-08-25T02:18:42.664Z,19.10
2022-08-25T02:21:11.335Z,19.20
2022-08-25T02:23:39.034Z,19.20
2022-08-25T02:26:06.594Z,19.20
2022-08-25T02:28:34.558Z,19.30
2022-08-25T02:31:02.633Z,19.40
2022-08-25T02:33:30.127Z,19.40
2022-08-25T02:35:59.515Z,19.40
2022-08-25T02:38:29.020Z,19.50
2022-08-25T02:40:58.362Z,19.60
2022-08-25T02:43:27.410Z,19.60
2022-08-25T02:45:56.410Z,19.70
2022-08-25T02:48:24.435Z,19.70
2022-08-25T02:50:52.820Z,19.80
2022-08-25T02:53:21.968Z,19.80
2022-08-25T02:55:49.539Z,19.80
2022-08-25T02:58:17.013Z,19.80
2022-08-25T03:00:46.013Z,19.80
2022-08-25T03:03:14.133Z,19.90
2022-08-25T03:05:41.903Z,19.80
2022-08-25T03:08:09.993Z,19.80
2022-08-25T03:10:37.575Z,19.80
2022-08-25T03:13:05.238Z,19.80
2022-08-25T03:15:33.966Z,19.80
2022-08-25T03:18:02.177Z,19.80
2022-08-25T03:20:31.476Z,19.80
2022-08-25T03:22:59.075Z,19.80
2022-08-25T03:25:45.151Z,19.90
2022-08-25T03:28:12.847Z,19.90
2022-08-25T03:30:41.034Z,19.90
2022-08-25T03:33:08.749Z,19.90
2022-08-25T03:35:36.424Z,19.80
2022-08-25T03:38:04.730Z,19.90
2022-08-25T03:40:32.947Z,19.90
2022-08-25T03:43:00.487Z,19.90
2022-08-25T03:45:28.360Z,19.80
2022-08-25T03:47:55.952Z,19.90
2022-08-25T03:50:23.915Z,19.90
2022-08-25T03:52:56.669Z,19.90
2022-08-25T03:55:25.472Z,20.00
2022-08-25T03:57:54.216Z,20.00
2022-08-25T04:00:23.342Z,20.00
2022-08-25T04:02:51.006Z,20.00
2022-08-25T04:05:20.283Z,20.10
2022-08-25T04:07:47.803Z,20.10
2022-08-25T04:10:15.670Z,20.10
2022-08-25T04:12:43.282Z,20.10
2022-08-25T04:15:11.258Z,20.10
2022-08-25T04:17:40.148Z,20.10
2022-08-25T04:20:10.569Z,20.20
2022-08-25T04:22:44.996Z,20.20
2022-08-25T04:25:13.539Z,20.10
2022-08-25T04:27:41.080Z,19.80
2022-08-25T04:30:09.882Z,19.60
2022-08-25T04:32:37.513Z,19.40
2022-08-25T04:35:05.551Z,19.30
2022-08-25T04:37:33.407Z,19.20
2022-08-25T04:40:01.338Z,19.20
2022-08-25T04:42:28.984Z,19.30
2022-08-25T04:44:56.555Z,19.20
2022-08-25T04:47:24.443Z,19.20
2022-08-25T04:49:51.970Z,19.20
2022-08-25T04:52:20.656Z,19.20
2022-08-25T04:54:48.446Z,19.20
2022-08-25T04:57:15.949Z,19.20
2022-08-25T04:59:43.494Z,19.10
2022-08-25T05:02:11.024Z,19.00
2022-08-25T05:04:38.615Z,18.90
2022-08-25T05:07:06.236Z,19.00
2022-08-25T05:09:33.979Z,19.00
2022-08-25T05:12:02.829Z,19.00
2022-08-25T05:14:32.228Z,19.00
2022-08-25T05:17:00.630Z,19.00
2022-08-25T05:19:28.527Z,19.00
2022-08-25T05:21:57.967Z,18.90
2022-08-25T05:24:26.656Z,19.00
2022-08-25T05:26:54.242Z,19.20
2022-08-25T05:29:21.865Z,19.00
2022-08-25T05:31:50.766Z,19.00
2022-08-25T05:34:19.552Z,19.00
2022-08-25T05:36:48.336Z,19.10
2022-08-25T05:39:16.363Z,19.00
2022-08-25T05:41:44.132Z,19.00
2022-08-25T05:44:12.762Z,19.10
2022-08-25T05:46:40.306Z,19.10
2022-08-25T05:49:10.607Z,19.10
2022-08-25T05:51:38.146Z,19.10
2022-08-25T05:54:06.177Z,19.10
2022-08-25T05:56:33.823Z,19.10
2022-08-25T05:59:03.253Z,19.10
2022-08-25T06:01:52.432Z,19.10
2022-08-25T06:04:20.905Z,19.20
2022-08-25T06:06:48.980Z,19.10
2022-08-25T06:09:16.506Z,19.20
2022-08-25T06:11:44.823Z,19.20
2022-08-25T06:14:12.434Z,19.20
2022-08-25T06:16:40.412Z,19.20
2022-08-25T06:19:09.600Z,19.20
2022-08-25T06:21:39.689Z,19.20
2022-08-25T06:24:13.430Z,19.10
2022-08-25T06:26:44.108Z,19.20
2022-08-25T06:29:14.081Z,19.20
2022-08-25T06:31:42.932Z,19.10
2022-08-25T06:34:11.938Z,19.00
2022-08-25T06:36:39.983Z,19.20
2022-08-25T06:39:08.524Z,19.10
2022-08-25T06:41:38.742Z,19.00
2022-08-25T06:44:06.190Z,19.10
2022-08-25T06:46:36.522Z,18.90
2022-08-25T06:49:06.591Z,19.20
2022-08-25T06:51:36.119Z,19.10
2022-08-25T06:54:06.360Z,19.10
2022-08-25T06:56:34.414Z,19.00
2022-08-25T06:59:03.133Z,19.10
2022-08-25T07:01:32.034Z,19.10
2022-08-25T07:04:01.810Z,19.10
2022-08-25T07:06:31.742Z,19.10
2022-08-25T07:08:59.971Z,19.10
2022-08-25T07:11:28.399Z,19.20
2022-08-25T07:13:55.914Z,19.10
2022-08-25T07:16:24.151Z,19.20
2022-08-25T07:18:59.072Z,19.10
2022-08-25T07:21:33.354Z,19.10
2022-08-25T07:24:03.364Z,19.00
2022-08-25T07:26:37.689Z,19.10
2022-08-25T07:29:10.575Z,19.10
2022-08-25T07:31:38.694Z,19.10
2022-08-25T07:34:26.162Z,19.10
2022-08-25T07:36:54.662Z,19.20
2022-08-25T07:39:23.463Z,19.20
2022-08-25T07:41:52.378Z,19.10
2022-08-25T07:44:22.348Z,19.20
2022-08-25T07:46:51.028Z,19.30
2022-08-25T07:49:23.557Z,19.40
2022-08-25T07:52:05.022Z,19.30
2022-08-25T07:54:37.771Z,19.30
2022-08-25T07:57:08.719Z,19.40
2022-08-25T07:59:41.140Z,19.40
2022-08-25T08:02:17.863Z,19.40
2022-08-25T08:04:51.144Z,19.60
2022-08-25T08:07:21.084Z,19.30
2022-08-25T08:10:00.369Z,19.30
2022-08-25T08:12:39.680Z,19.30
2022-08-25T08:15:10.398Z,19.30
2022-08-25T08:17:39.568Z,19.30
2022-08-25T08:20:09.871Z,19.30
2022-08-25T08:22:41.125Z,19.30
2022-08-25T08:25:10.540Z,19.40
2022-08-25T08:27:39.529Z,19.30
2022-08-25T08:30:07.674Z,19.20
2022-08-25T08:32:59.928Z,19.40
2022-08-25T08:35:23.003Z,19.30
2022-08-25T08:37:53.802Z,19.10
2022-08-25T08:40:21.941Z,19.20
2022-08-25T08:43:04.165Z,19.30
2022-08-25T08:45:52.052Z,19.20
2022-08-25T08:48:58.654Z,19.40
2022-08-25T08:51:44.448Z,19.30
2022-08-25T08:54:20.407Z,19.30
2022-08-25T08:57:03.227Z,19.50
2022-08-25T08:59:41.794Z,19.60
2022-08-25T09:02:39.501Z,19.40
2022-08-25T09:05:12.324Z,19.50
2022-08-25T09:07:49.014Z,19.60
2022-08-25T09:10:24.827Z,19.70
2022-08-25T09:15:57.770Z,19.70
2022-08-25T09:18:41.215Z,19.70
2022-08-25T09:21:21.715Z,19.80
2022-08-25T09:24:26.730Z,19.80
2022-08-25T09:27:19.023Z,19.80
2022-08-25T09:30:01.898Z,19.80
2022-08-25T09:32:48.982Z,19.80
2022-08-25T09:35:26.602Z,19.70
2022-08-25T09:38:04.491Z,19.60
2022-08-25T09:40:46.932Z,19.60
2022-08-25T09:43:35.081Z,19.50
2022-08-25T09:46:05.933Z,20.50
2022-08-25T09:48:52.545Z,19.80
2022-08-25T09:51:38.202Z,20.30
2022-08-25T09:54:16.120Z,19.50
2022-08-25T09:57:02.079Z,19.30
2022-08-25T09:59:38.755Z,21.50
2022-08-25T10:02:29.864Z,19.70
2022-08-25T10:04:59.892Z,20.80
2022-08-25T10:07:30.590Z,19.80
2022-08-25T10:10:01.750Z,20.30
2022-08-25T10:12:43.146Z,19.80
2022-08-25T10:15:30.845Z,19.80
2022-08-25T10:18:25.734Z,20.70
2022-08-25T10:21:10.572Z,20.10
2022-08-25T10:23:48.942Z,21.20
2022-08-25T10:26:34.323Z,20.10
2022-08-25T10:29:08.952Z,21.20
2022-08-25T10:32:12.301Z,19.90
2022-08-25T10:34:52.620Z,19.40
2022-08-25T10:37:39.388Z,19.60
2022-08-25T10:40:24.161Z,19.60
2022-08-25T10:43:17.539Z,19.80
2022-08-25T10:46:07.881Z,19.80
2022-08-25T10:48:57.968Z,19.90
2022-08-25T10:51:43.630Z,19.90
2022-08-25T10:54:33.698Z,19.90
2022-08-25T10:57:25.713Z,19.90
2022-08-25T10:59:56.338Z,19.90
2022-08-25T11:02:45.655Z,20.00
2022-08-25T11:05:26.216Z,20.50
2022-08-25T11:08:29.619Z,20.10
2022-08-25T11:11:03.853Z,20.10
2022-08-25T11:13:46.119Z,20.10
2022-08-25T11:16:28.970Z,20.20
2022-08-25T11:19:06.965Z,20.20
2022-08-25T11:22:22.951Z,20.20
2022-08-25T11:25:23.008Z,20.90
2022-08-25T11:27:59.623Z,20.30
2022-08-25T11:30:30.905Z,20.40
2022-08-25T11:33:00.043Z,20.50
2022-08-25T11:35:41.181Z,20.60
2022-08-25T11:38:23.296Z,20.70
2022-08-25T11:41:14.033Z,20.80
2022-08-25T11:43:47.563Z,20.90
2022-08-25T11:46:43.906Z,21.00
2022-08-25T11:49:44.245Z,21.00
2022-08-25T11:52:31.911Z,21.10
2022-08-25T11:55:34.989Z,21.30
2022-08-25T11:58:37.210Z,21.40
2022-08-25T12:01:08.281Z,22.00
2022-08-25T12:03:37.397Z,21.70
2022-08-25T12:06:28.175Z,21.80
2022-08-25T12:09:05.787Z,21.80
2022-08-25T12:11:44.134Z,21.80
2022-08-25T12:14:42.081Z,21.70
2022-08-25T12:17:23.133Z,21.60
2022-08-25T12:19:55.656Z,21.50
2022-08-25T12:22:26.933Z,21.30
2022-08-25T12:25:11.696Z,21.30
2022-08-25T12:28:20.257Z,21.20
2022-08-25T12:31:01.301Z,21.10
2022-08-25T12:33:46.821Z,21.00
2022-08-25T12:36:31.455Z,21.20
2022-08-25T12:39:24.375Z,21.40
2022-08-25T12:41:57.023Z,21.60
2022-08-25T12:44:49.562Z,21.70
2022-08-25T12:47:32.396Z,21.80
2022-08-25T12:50:47.712Z,21.90
2022-08-25T12:53:42.792Z,22.10
2022-08-25T12:56:21.089Z,22.40
2022-08-25T12:59:01.531Z,22.30
2022-08-25T13:02:07.178Z,22.20
2022-08-25T13:04:44.056Z,22.30
2022-08-25T13:07:23.909Z,22.40
2022-08-25T13:10:20.732Z,22.80
2022-08-25T13:13:21.040Z,22.80
2022-08-25T13:16:07.911Z,22.90
2022-08-25T13:18:41.561Z,22.90
2022-08-25T13:21:16.398Z,22.60
2022-08-25T13:23:50.972Z,22.50
2022-08-25T13:26:25.887Z,22.30
2022-08-25T13:28:59.023Z,23.80
2022-08-25T13:31:29.628Z,22.20
2022-08-25T13:33:58.673Z,22.30
2022-08-25T13:36:54.028Z,22.50
2022-08-25T13:39:45.487Z,22.70
2022-08-25T13:42:16.604Z,22.80
2022-08-25T13:44:58.730Z,22.80
2022-08-25T13:47:43.351Z,23.00
2022-08-25T13:50:26.529Z,22.40
2022-08-25T13:53:22.472Z,22.90
2022-08-25T13:55:53.333Z,23.10
2022-08-25T13:58:38.608Z,23.40
2022-08-25T14:01:23.452Z,23.80
2022-08-25T14:04:32.526Z,24.20
2022-08-25T14:07:21.327Z,24.70
2022-08-25T14:09:58.433Z,25.20
2022-08-25T14:12:35.810Z,25.50
2022-08-25T14:15:23.782Z,25.80
2022-08-25T14:18:17.569Z,25.80
2022-08-25T14:20:50.775Z,25.60
2022-08-25T14:23:24.673Z,25.40
2022-08-25T14:25:53.866Z,25.20
2022-08-25T14:28:24.337Z,25.70
2022-08-25T14:31:05.147Z,24.80
2022-08-25T14:33:42.679Z,24.50
2022-08-25T14:36:10.752Z,24.30
2022-08-25T14:38:39.058Z,24.10
2022-08-25T14:43:40.375Z,23.80
2022-08-25T14:46:25.141Z,23.70
2022-08-25T14:48:56.784Z,23.80
2022-08-25T14:51:26.136Z,24.00
2022-08-25T14:53:58.095Z,24.00
2022-08-25T14:56:25.883Z,23.90
2022-08-25T14:58:57.367Z,23.80
2022-08-25T15:01:30.196Z,23.70
2022-08-25T15:04:08.531Z,23.60
2022-08-25T15:06:36.998Z,23.40
2022-08-25T15:09:10.908Z,23.30
2022-08-25T15:12:00.531Z,23.10
2022-08-25T15:14:33.106Z,23.00
2022-08-25T15:17:02.542Z,22.90
2022-08-25T15:19:30.813Z,23.00
2022-08-25T15:21:59.495Z,23.10
2022-08-25T15:24:28.398Z,23.30
2022-08-25T15:26:59.473Z,23.60
2022-08-25T15:29:30.129Z,23.80
2022-08-25T15:32:00.091Z,23.90
2022-08-25T15:34:28.489Z,23.90
2022-08-25T15:36:58.355Z,23.90
2022-08-25T15:39:27.954Z,23.90
2022-08-25T15:41:57.171Z,23.80
2022-08-25T15:44:29.428Z,23.70
2022-08-25T15:46:59.340Z,23.50
2022-08-25T15:49:29.557Z,23.40
2022-08-25T15:51:59.089Z,23.20
2022-08-25T15:54:27.142Z,23.10
2022-08-25T15:56:57.623Z,23.30
2022-08-25T15:59:25.984Z,22.90
2022-08-25T16:01:55.718Z,22.70
2022-08-25T16:04:29.659Z,21.80
2022-08-25T16:07:00.627Z,22.80
2022-08-25T16:09:28.979Z,23.50
2022-08-25T16:12:03.978Z,22.60
2022-08-25T16:14:34.303Z,22.40
2022-08-25T16:17:02.402Z,22.50
2022-08-25T16:19:33.544Z,22.50
2022-08-25T16:22:13.014Z,22.50
2022-08-25T16:24:45.854Z,22.90
2022-08-25T16:27:14.181Z,22.50
2022-08-25T16:29:45.797Z,22.20
2022-08-25T16:32:15.317Z,22.20
2022-08-25T16:34:44.364Z,22.10
2022-08-25T16:37:13.486Z,22.70
2022-08-25T16:39:44.225Z,23.60
2022-08-25T16:42:13.108Z,22.30
2022-08-25T16:44:41.162Z,22.80
2022-08-25T16:47:09.206Z,21.30
2022-08-25T16:49:37.114Z,22.40
2022-08-25T16:52:28.521Z,22.10
2022-08-25T16:55:16.165Z,22.30
2022-08-25T16:57:48.527Z,22.00
2022-08-25T17:00:21.981Z,22.10
2022-08-25T17:02:52.094Z,21.40
2022-08-25T17:05:19.980Z,21.40
2022-08-25T17:08:07.959Z,21.50
2022-08-25T17:10:38.605Z,21.30
2022-08-25T17:13:06.730Z,21.10
2022-08-25T17:15:34.495Z,21.20
2022-08-25T17:18:02.353Z,20.80
2022-08-25T17:20:39.260Z,21.00
2022-08-25T17:23:12.738Z,21.00
2022-08-25T17:25:43.250Z,20.80
2022-08-25T17:28:12.827Z,20.80
2022-08-25T17:30:41.355Z,20.10
2022-08-25T17:33:09.329Z,20.70
2022-08-25T17:35:45.865Z,20.70
2022-08-25T17:38:33.270Z,20.70
2022-08-25T17:41:06.684Z,20.00
2022-08-25T17:43:37.716Z,20.50
2022-08-25T17:46:06.238Z,20.50
2022-08-25T17:48:35.351Z,20.30
2022-08-25T17:51:04.070Z,20.30
2022-08-25T17:53:32.019Z,20.20
2022-08-25T17:56:14.248Z,20.20
2022-08-25T17:58:42.534Z,20.70
2022-08-25T18:01:40.713Z,20.40
2022-08-25T18:04:17.023Z,20.40
2022-08-25T18:06:48.356Z,20.30
2022-08-25T18:09:17.475Z,20.00
2022-08-25T18:11:46.011Z,20.10
2022-08-25T18:14:16.528Z,20.40
2022-08-25T18:16:44.727Z,19.80
2022-08-25T18:19:14.368Z,19.80
2022-08-25T18:21:43.472Z,19.50
2022-08-25T18:24:11.511Z,19.10
2022-08-25T18:26:41.139Z,20.30
2022-08-25T18:29:12.840Z,19.70
2022-08-25T18:31:42.441Z,19.60
2022-08-25T18:34:11.566Z,19.60
2022-08-25T18:36:39.631Z,19.50
2022-08-25T18:39:26.637Z,19.30
2022-08-25T18:41:57.149Z,19.30
2022-08-25T18:44:24.683Z,19.20
2022-08-25T18:46:52.359Z,19.40
2022-08-25T18:49:21.897Z,19.20
2022-08-25T18:51:54.449Z,19.10
2022-08-25T18:54:23.525Z,19.00
2022-08-25T18:56:54.676Z,18.90
2022-08-25T18:59:24.108Z,18.90
2022-08-25T19:01:53.830Z,19.50
2022-08-25T19:04:28.574Z,18.90
2022-08-25T19:07:00.728Z,18.80
2022-08-25T19:09:29.094Z,18.80
2022-08-25T19:11:59.065Z,19.00
2022-08-25T19:14:27.657Z,18.70
2022-08-25T19:16:57.943Z,18.90
2022-08-25T19:19:25.973Z,18.70
2022-08-25T19:21:53.648Z,18.70
2022-08-25T19:24:21.533Z,18.90
2022-08-25T19:26:53.785Z,18.70
2022-08-25T19:29:23.365Z,18.50
2022-08-25T19:31:51.619Z,18.70
2022-08-25T19:34:28.247Z,18.60
2022-08-25T19:37:00.099Z,18.60
2022-08-25T19:39:28.905Z,21.00
2022-08-25T19:41:58.504Z,18.60
2022-08-25T19:44:27.862Z,18.60
2022-08-25T19:46:56.399Z,18.50
2022-08-25T19:49:31.583Z,18.50
2022-08-25T19:52:02.539Z,18.50
2022-08-25T19:54:45.858Z,18.50
2022-08-25T19:57:27.840Z,18.50
2022-08-25T20:00:09.023Z,18.50
2022-08-25T20:02:41.107Z,18.40
2022-08-25T20:05:08.996Z,18.40
2022-08-25T20:07:37.081Z,18.50
2022-08-25T20:10:06.737Z,18.40
2022-08-25T20:12:35.545Z,18.40
2022-08-25T20:15:04.040Z,17.90
2022-08-25T20:17:32.003Z,18.40
2022-08-25T20:20:02.459Z,18.40
2022-08-25T20:22:33.482Z,18.50
2022-08-25T20:25:16.451Z,18.40
2022-08-25T20:27:48.720Z,18.40
2022-08-25T20:30:20.553Z,18.40
2022-08-25T20:32:49.272Z,18.40
2022-08-25T20:35:18.281Z,18.40
2022-08-25T20:37:47.035Z,18.80
2022-08-25T20:40:18.635Z,18.30
2022-08-25T20:42:54.997Z,18.40
2022-08-25T20:45:23.620Z,18.20
2022-08-25T20:47:51.467Z,18.30
2022-08-25T20:50:19.718Z,18.20
2022-08-25T20:52:48.532Z,17.60
2022-08-25T20:55:17.561Z,18.20
2022-08-25T20:57:46.758Z,18.30
2022-08-25T21:00:19.574Z,18.30
2022-08-25T21:02:51.495Z,18.20
2022-08-25T21:05:19.448Z,18.20
2022-08-25T21:07:47.356Z,18.20
2022-08-25T21:10:17.003Z,18.00
2022-08-25T21:12:45.228Z,18.10
2022-08-25T21:15:18.058Z,18.20
2022-08-25T21:17:50.680Z,18.30
2022-08-25T21:20:18.412Z,18.20
2022-08-25T21:22:46.110Z,18.00
2022-08-25T21:25:13.936Z,18.10
2022-08-25T21:27:41.459Z,18.10
2022-08-25T21:30:11.953Z,18.10
2022-08-25T21:32:39.570Z,18.20
2022-08-25T21:35:22.861Z,18.10
2022-08-25T21:37:52.992Z,17.90
2022-08-25T21:40:23.049Z,18.00
2022-08-25T21:42:52.012Z,18.00
2022-08-25T21:45:20.977Z,18.00
2022-08-25T21:47:49.808Z,17.90
2022-08-25T21:50:20.077Z,17.80
2022-08-25T21:52:47.838Z,17.70
2022-08-25T21:55:22.327Z,17.80
2022-08-25T21:57:50.316Z,17.40
2022-08-25T22:00:21.385Z,17.30
2022-08-25T22:02:51.267Z,17.20
2022-08-25T22:05:19.303Z,17.10
2022-08-25T22:07:47.814Z,16.90
2022-08-25T22:10:17.990Z,16.80
2022-08-25T22:12:47.327Z,16.60
2022-08-25T22:15:16.839Z,16.50
2022-08-25T22:17:48.095Z,16.40
2022-08-25T22:20:17.211Z,16.30
2022-08-25T22:22:44.872Z,16.20
2022-08-25T22:25:13.184Z,16.10
2022-08-25T22:27:40.755Z,16.10
2022-08-25T22:30:08.875Z,15.90
2022-08-25T22:32:36.337Z,15.90
2022-08-25T22:35:04.777Z,15.70
2022-08-25T22:37:32.443Z,15.50
2022-08-25T22:40:02.902Z,15.70
2022-08-25T22:42:31.451Z,15.80
2022-08-25T22:44:59.091Z,15.60
2022-08-25T22:47:26.852Z,15.50
2022-08-25T22:49:55.606Z,15.50
2022-08-25T22:52:31.949Z,15.50
2022-08-25T22:55:02.912Z,15.40
2022-08-25T22:57:30.903Z,15.40
2022-08-25T22:59:59.246Z,15.30
2022-08-25T23:02:27.676Z,15.30
2022-08-25T23:04:58.104Z,15.20
2022-08-25T23:07:29.643Z,15.30
2022-08-25T23:10:02.879Z,15.20
2022-08-25T23:12:30.802Z,15.00
2022-08-25T23:14:58.371Z,15.20
2022-08-25T23:17:29.146Z,15.10
2022-08-25T23:19:56.691Z,15.10
2022-08-25T23:22:24.303Z,15.00
2022-08-25T23:24:54.812Z,15.00
2022-08-25T23:27:22.673Z,15.00
2022-08-25T23:29:50.299Z,15.00
2022-08-25T23:32:18.755Z,15.00
2022-08-25T23:34:47.153Z,14.90
2022-08-25T23:37:16.105Z,14.80
2022-08-25T23:39:47.308Z,14.80
2022-08-25T23:42:19.130Z,14.80
2022-08-25T23:44:47.924Z,14.70
2022-08-25T23:47:16.290Z,14.70
2022-08-25T23:49:43.908Z,14.70
2022-08-25T23:52:11.562Z,14.80
2022-08-25T23:54:39.363Z,14.70
2022-08-25T23:57:07.326Z,14.60
2022-08-25T23:59:38.262Z,14.70
